createdAt,value
2019-02-07T00:02:09.743Z,60.40
2019-02-07T00:04:40.074Z,66.43
2019-02-07T00:07:10.833Z,66.43
2019-02-07T00:09:41.147Z,60.00
2019-02-07T00:12:11.465Z,66.73
2019-02-07T00:14:41.824Z,68.23
2019-02-07T00:17:12.131Z,66.87
2019-02-07T00:19:43.602Z,66.97
2019-02-07T00:22:13.914Z,67.97
2019-02-07T00:24:44.278Z,66.27
2019-02-07T00:27:14.590Z,67.13
2019-02-07T00:29:44.935Z,67.63
2019-02-07T00:32:15.252Z,69.30
2019-02-07T00:34:46.105Z,72.00
2019-02-07T00:37:16.413Z,69.70
2019-02-07T00:39:47.192Z,66.23
2019-02-07T00:42:17.492Z,60.90
2019-02-07T00:44:51.008Z,65.60
2019-02-07T00:47:31.807Z,64.77
2019-02-07T00:50:02.183Z,64.47
2019-02-07T00:52:32.555Z,68.17
2019-02-07T00:55:02.989Z,69.43
2019-02-07T00:57:33.298Z,66.03
2019-02-07T01:00:03.862Z,65.43
2019-02-07T01:02:34.543Z,66.70
2019-02-07T01:07:56.860Z,64.20
2019-02-07T01:10:28.775Z,70.33
2019-02-07T01:12:59.119Z,65.73
2019-02-07T01:15:29.686Z,70.40
2019-02-07T01:18:00.149Z,71.67
2019-02-07T01:20:30.948Z,63.48
2019-02-07T01:23:01.613Z,69.53
2019-02-07T01:25:31.957Z,72.07
2019-02-07T01:28:02.272Z,66.07
2019-02-07T01:30:32.717Z,70.27
2019-02-07T01:33:03.031Z,67.10
2019-02-07T01:35:33.360Z,68.03
2019-02-07T01:38:03.663Z,72.37
2019-02-07T01:40:34.015Z,66.13
2019-02-07T01:43:04.349Z,69.67
2019-02-07T01:45:34.712Z,71.77
2019-02-07T01:48:05.138Z,69.97
2019-02-07T01:50:35.785Z,66.57
2019-02-07T01:53:06.109Z,65.67
2019-02-07T01:55:36.460Z,60.17
2019-02-07T01:58:06.794Z,70.87
2019-02-07T02:00:37.211Z,66.87
2019-02-07T02:03:07.533Z,62.67
2019-02-07T02:05:37.903Z,64.10
2019-02-07T02:08:08.358Z,59.73
2019-02-07T02:10:38.800Z,65.65
2019-02-07T02:13:09.244Z,69.20
2019-02-07T02:15:39.817Z,66.72
2019-02-07T02:18:10.365Z,64.17
2019-02-07T02:20:40.877Z,66.77
2019-02-07T02:23:11.441Z,63.40
2019-02-07T02:25:41.786Z,63.02
2019-02-07T02:28:12.242Z,60.50
2019-02-07T02:30:42.589Z,52.27
2019-02-07T02:33:13.068Z,62.20
2019-02-07T02:35:43.631Z,58.03
2019-02-07T02:38:14.117Z,55.53
2019-02-07T02:40:44.606Z,61.60
2019-02-07T02:43:15.231Z,58.30
2019-02-07T02:45:45.846Z,59.80
2019-02-07T02:48:16.496Z,62.50
2019-02-07T02:50:46.945Z,59.60
2019-02-07T02:53:17.386Z,57.27
2019-02-07T02:55:48.004Z,52.78
2019-02-07T02:58:18.478Z,57.47
2019-02-07T03:01:13.802Z,59.03
2019-02-07T03:04:02.151Z,62.37
2019-02-07T03:06:42.159Z,60.17
2019-02-07T03:09:40.578Z,59.50
2019-02-07T03:12:28.472Z,60.27
2019-02-07T03:15:13.855Z,56.17
2019-02-07T03:18:15.402Z,61.90
2019-02-07T03:21:03.371Z,69.63
2019-02-07T03:23:53.061Z,55.27
2019-02-07T03:26:41.070Z,57.73
2019-02-07T03:29:30.362Z,62.03
2019-02-07T03:32:11.326Z,61.10
2019-02-07T03:35:03.758Z,54.77
2019-02-07T03:37:47.088Z,61.40
2019-02-07T03:40:35.330Z,65.03
2019-02-07T03:43:27.669Z,59.47
2019-02-07T03:46:08.243Z,59.77
2019-02-07T03:49:01.900Z,59.17
2019-02-07T03:51:51.172Z,58.13
2019-02-07T03:54:39.910Z,57.20
2019-02-07T03:57:34.978Z,57.17
2019-02-07T04:00:23.013Z,61.13
2019-02-07T04:03:21.117Z,58.80
2019-02-07T04:06:09.066Z,61.13
2019-02-07T04:08:58.285Z,64.60
2019-02-07T04:11:46.566Z,62.60
2019-02-07T04:14:36.091Z,62.93
2019-02-07T04:17:25.390Z,59.37
2019-02-07T04:20:15.643Z,64.67
2019-02-07T04:23:06.401Z,56.53
2019-02-07T04:25:57.137Z,57.43
2019-02-07T04:28:45.217Z,63.03
2019-02-07T04:31:40.758Z,58.17
2019-02-07T04:34:39.107Z,57.03
2019-02-07T04:37:18.253Z,62.47
2019-02-07T04:40:07.101Z,61.60
2019-02-07T04:42:47.837Z,57.60
2019-02-07T04:45:55.299Z,58.03
2019-02-07T04:48:39.096Z,61.83
2019-02-07T04:51:26.908Z,60.40
2019-02-07T04:54:15.180Z,61.97
2019-02-07T04:57:01.455Z,57.57
2019-02-07T04:59:41.588Z,63.50
2019-02-07T05:02:29.871Z,56.40
2019-02-07T05:05:19.401Z,59.73
2019-02-07T05:08:24.492Z,58.57
2019-02-07T05:11:13.956Z,55.67
2019-02-07T05:14:00.822Z,57.30
2019-02-07T05:17:00.374Z,58.77
2019-02-07T05:19:49.010Z,61.60
2019-02-07T05:22:44.134Z,60.67
2019-02-07T05:25:40.185Z,62.00
2019-02-07T05:28:22.880Z,60.23
2019-02-07T05:31:07.624Z,55.33
2019-02-07T05:34:12.393Z,60.47
2019-02-07T05:37:04.442Z,55.40
2019-02-07T05:39:53.934Z,60.03
2019-02-07T05:42:42.002Z,57.90
2019-02-07T05:45:34.580Z,47.90
2019-02-07T05:48:18.072Z,51.60
2019-02-07T05:51:06.173Z,51.27
2019-02-07T05:53:54.431Z,44.53
2019-02-07T05:56:43.867Z,41.93
2019-02-07T05:59:39.733Z,38.73
2019-02-07T06:02:38.002Z,35.17
2019-02-07T06:05:25.405Z,33.27
2019-02-07T06:08:08.390Z,31.80
2019-02-07T06:11:06.903Z,31.93
2019-02-07T06:14:02.455Z,30.30
2019-02-07T06:16:43.197Z,34.83
2019-02-07T06:19:32.609Z,35.43
2019-02-07T06:22:22.077Z,37.90
2019-02-07T06:25:14.175Z,28.17
2019-02-07T06:28:03.923Z,41.50
2019-02-07T06:30:49.167Z,42.93
2019-02-07T06:33:47.435Z,43.65
2019-02-07T06:36:35.458Z,39.67
2019-02-07T06:39:44.501Z,41.27
2019-02-07T06:42:42.860Z,37.73
2019-02-07T06:45:39.830Z,43.17
2019-02-07T06:48:32.351Z,43.57
2019-02-07T06:51:21.741Z,44.03
2019-02-07T06:54:10.086Z,41.33
2019-02-07T06:57:06.242Z,43.63
2019-02-07T06:59:54.430Z,68.37
2019-02-07T07:02:45.081Z,43.83
2019-02-07T07:05:34.363Z,41.17
2019-02-07T07:08:19.271Z,45.97
2019-02-07T07:11:11.498Z,44.20
2019-02-07T07:14:00.859Z,43.37
2019-02-07T07:16:41.427Z,46.17
2019-02-07T07:19:30.005Z,45.33
2019-02-07T07:22:19.142Z,43.70
2019-02-07T07:25:05.693Z,48.27
2019-02-07T07:27:57.911Z,44.57
2019-02-07T07:30:46.183Z,45.70
2019-02-07T07:33:37.420Z,44.73
2019-02-07T07:36:26.426Z,44.67
2019-02-07T07:39:20.419Z,44.80
2019-02-07T07:42:02.663Z,44.70
2019-02-07T07:45:01.488Z,44.23
2019-02-07T07:48:11.774Z,46.33
2019-02-07T07:50:58.605Z,50.43
2019-02-07T07:53:55.582Z,47.17
2019-02-07T07:56:51.371Z,45.77
2019-02-07T07:59:41.402Z,42.83
2019-02-07T08:02:42.571Z,44.63
2019-02-07T08:05:21.610Z,47.20
2019-02-07T08:08:26.673Z,45.95
2019-02-07T08:11:13.098Z,45.20
2019-02-07T08:13:59.928Z,43.30
2019-02-07T08:16:59.319Z,42.17
2019-02-07T08:20:00.805Z,43.40
2019-02-07T08:22:51.183Z,45.97
2019-02-07T08:25:51.479Z,49.77
2019-02-07T08:28:51.258Z,46.63
2019-02-07T08:31:46.705Z,42.43
2019-02-07T08:34:42.286Z,45.37
2019-02-07T08:37:30.546Z,48.83
2019-02-07T08:40:13.926Z,47.33
2019-02-07T08:43:15.161Z,48.30
2019-02-07T08:46:04.760Z,41.67
2019-02-07T08:49:01.105Z,49.70
2019-02-07T08:52:00.072Z,50.07
2019-02-07T08:55:01.848Z,43.33
2019-02-07T08:57:52.908Z,42.93
2019-02-07T09:00:42.267Z,43.20
2019-02-07T09:03:20.594Z,37.23
2019-02-07T09:06:20.342Z,41.43
2019-02-07T09:09:08.677Z,38.90
2019-02-07T09:11:59.658Z,38.43
2019-02-07T09:14:38.131Z,39.53
2019-02-07T09:17:36.274Z,42.47
2019-02-07T09:20:39.050Z,42.13
2019-02-07T09:23:46.752Z,41.37
2019-02-07T09:26:47.860Z,41.10
2019-02-07T09:29:36.480Z,42.00
2019-02-07T09:32:17.513Z,45.27
2019-02-07T09:35:13.180Z,43.83
2019-02-07T09:38:18.018Z,48.23
2019-02-07T09:41:10.143Z,44.60
2019-02-07T09:44:05.329Z,46.13
2019-02-07T09:47:03.711Z,51.07
2019-02-07T09:49:46.954Z,49.43
2019-02-07T09:52:39.309Z,51.43
2019-02-07T09:55:28.315Z,48.03
2019-02-07T09:58:10.435Z,53.77
2019-02-07T10:00:58.855Z,59.50
2019-02-07T10:03:37.991Z,55.63
2019-02-07T10:06:18.600Z,65.77
2019-02-07T10:09:13.801Z,59.67
2019-02-07T10:12:13.901Z,60.23
2019-02-07T10:15:05.953Z,54.67
2019-02-07T10:17:49.973Z,60.57
2019-02-07T10:20:38.224Z,59.00
2019-02-07T10:23:27.493Z,55.47
2019-02-07T10:26:15.170Z,57.63
2019-02-07T10:29:16.636Z,55.20
2019-02-07T10:32:04.669Z,52.87
2019-02-07T10:34:52.607Z,55.00
2019-02-07T10:37:41.126Z,52.73
2019-02-07T10:40:22.394Z,50.60
2019-02-07T10:43:10.340Z,48.90
2019-02-07T10:46:04.525Z,51.53
2019-02-07T10:48:49.329Z,46.17
2019-02-07T10:51:50.769Z,42.17
2019-02-07T10:54:58.235Z,39.47
2019-02-07T10:57:47.534Z,40.13
2019-02-07T11:00:45.437Z,41.53
2019-02-07T11:03:33.582Z,40.47
2019-02-07T11:06:17.664Z,38.10
2019-02-07T11:09:25.240Z,41.23
2019-02-07T11:12:17.198Z,41.03
2019-02-07T11:15:21.219Z,36.53
2019-02-07T11:18:10.838Z,42.00
2019-02-07T11:21:00.201Z,44.50
2019-02-07T11:23:56.580Z,45.73
2019-02-07T11:26:51.809Z,47.97
2019-02-07T11:29:51.844Z,47.23
2019-02-07T11:32:50.889Z,42.57
2019-02-07T11:35:51.958Z,43.47
2019-02-07T11:38:39.737Z,36.00
2019-02-07T11:41:18.561Z,31.33
2019-02-07T11:44:06.168Z,31.42
2019-02-07T11:46:53.804Z,27.23
2019-02-07T11:49:29.858Z,21.13
2019-02-07T11:52:22.022Z,20.30
2019-02-07T11:55:14.502Z,20.70
2019-02-07T11:58:19.001Z,19.07
2019-02-07T12:01:08.356Z,16.20
2019-02-07T12:03:45.938Z,15.93
2019-02-07T12:06:29.119Z,17.60
2019-02-07T12:09:33.626Z,18.67
2019-02-07T12:12:15.931Z,20.47
2019-02-07T12:15:15.692Z,19.33
2019-02-07T12:18:23.481Z,21.77
2019-02-07T12:21:05.267Z,22.43
2019-02-07T12:24:00.673Z,22.67
2019-02-07T12:26:46.941Z,25.60
2019-02-07T12:29:31.620Z,21.67
2019-02-07T12:32:24.493Z,21.03
2019-02-07T12:35:14.429Z,22.60
2019-02-07T12:38:12.828Z,23.73
2019-02-07T12:41:02.090Z,19.27
2019-02-07T12:44:01.678Z,17.70
2019-02-07T12:47:03.122Z,16.97
2019-02-07T12:49:55.480Z,19.47
2019-02-07T12:52:54.150Z,17.13
2019-02-07T12:55:51.965Z,15.30
2019-02-07T12:58:40.417Z,17.57
2019-02-07T13:01:35.578Z,16.20
2019-02-07T13:04:31.681Z,14.57
2019-02-07T13:07:20.996Z,14.67
2019-02-07T13:10:09.683Z,11.23
2019-02-07T13:13:05.220Z,12.90
2019-02-07T13:15:56.446Z,12.07
2019-02-07T13:18:45.938Z,9.27
2019-02-07T13:21:26.546Z,11.30
2019-02-07T13:24:25.180Z,9.83
2019-02-07T13:27:13.037Z,10.10
2019-02-07T13:30:11.424Z,10.40
2019-02-07T13:33:03.799Z,11.53
2019-02-07T13:36:02.406Z,11.60
2019-02-07T13:38:54.917Z,9.97
2019-02-07T13:41:44.207Z,8.13
2019-02-07T13:44:32.652Z,10.63
2019-02-07T13:47:24.828Z,11.63
2019-02-07T13:50:12.896Z,10.37
2019-02-07T13:52:58.727Z,12.37
2019-02-07T13:55:54.129Z,10.80
2019-02-07T13:58:36.994Z,9.97
2019-02-07T14:01:25.372Z,10.00
2019-02-07T14:04:13.769Z,9.83
2019-02-07T14:07:06.303Z,11.63
2019-02-07T14:09:58.785Z,10.88
2019-02-07T14:12:51.262Z,10.33
2019-02-07T14:15:53.806Z,23.17
2019-02-07T14:18:42.119Z,19.73
2019-02-07T14:21:31.399Z,23.38
2019-02-07T14:24:19.396Z,18.73
2019-02-07T14:27:11.599Z,13.33
2019-02-07T14:30:01.049Z,13.43
2019-02-07T14:32:50.210Z,15.97
2019-02-07T14:35:42.547Z,16.50
2019-02-07T14:38:32.237Z,13.67
2019-02-07T14:41:20.578Z,14.37
2019-02-07T14:44:10.089Z,13.83
2019-02-07T14:46:48.748Z,14.35
2019-02-07T14:49:19.172Z,14.27
2019-02-07T14:51:49.577Z,15.87
2019-02-07T14:54:20.653Z,15.53
2019-02-07T14:56:51.120Z,16.17
2019-02-07T14:59:21.762Z,15.40
2019-02-07T15:01:52.128Z,13.87
2019-02-07T15:04:22.525Z,14.87
2019-02-07T15:06:53.271Z,14.17
2019-02-07T15:09:23.689Z,13.13
2019-02-07T15:11:54.303Z,15.87
2019-02-07T15:14:24.782Z,16.30
2019-02-07T15:16:55.181Z,15.17
2019-02-07T15:19:25.607Z,18.33
2019-02-07T15:21:56.013Z,17.17
2019-02-07T15:24:26.439Z,17.33
2019-02-07T15:26:56.856Z,18.00
2019-02-07T15:29:27.273Z,16.20
2019-02-07T15:31:57.704Z,14.90
2019-02-07T15:34:28.420Z,15.73
2019-02-07T15:36:58.819Z,15.93
2019-02-07T15:39:29.232Z,17.93
2019-02-07T15:41:59.592Z,17.23
2019-02-07T15:44:31.007Z,19.80
2019-02-07T15:47:01.343Z,16.53
2019-02-07T15:49:31.941Z,16.10
2019-02-07T15:52:02.391Z,15.73
2019-02-07T15:54:32.798Z,17.60
2019-02-07T15:57:03.249Z,19.27
2019-02-07T15:59:47.597Z,17.73
2019-02-07T16:02:21.954Z,18.40
2019-02-07T16:04:52.382Z,19.67
2019-02-07T16:07:22.716Z,17.20
2019-02-07T16:09:53.121Z,16.87
2019-02-07T16:12:23.798Z,16.73
2019-02-07T16:14:55.232Z,19.47
2019-02-07T16:17:25.583Z,15.53
2019-02-07T16:19:55.993Z,15.87
2019-02-07T16:22:26.614Z,15.63
2019-02-07T16:24:57.053Z,18.57
2019-02-07T16:27:27.412Z,15.73
2019-02-07T16:29:58.850Z,16.13
2019-02-07T16:32:29.358Z,20.77
2019-02-07T16:35:11.156Z,20.03
2019-02-07T16:37:41.894Z,19.67
2019-02-07T16:40:12.926Z,19.63
2019-02-07T16:42:43.381Z,17.37
2019-02-07T16:45:15.706Z,16.30
2019-02-07T16:47:46.039Z,17.90
2019-02-07T16:50:17.468Z,20.90
2019-02-07T16:52:47.813Z,18.07
2019-02-07T16:55:18.244Z,17.30
2019-02-07T16:57:48.585Z,17.93
2019-02-07T17:00:21.662Z,15.83
2019-02-07T17:02:52.440Z,15.33
2019-02-07T17:05:24.397Z,18.37
2019-02-07T17:07:54.817Z,14.37
2019-02-07T17:10:28.201Z,14.53
2019-02-07T17:12:58.558Z,17.85
2019-02-07T17:15:29.281Z,17.40
2019-02-07T17:18:00.014Z,16.80
2019-02-07T17:20:31.163Z,15.60
2019-02-07T17:23:01.982Z,16.13
2019-02-07T17:25:32.628Z,18.42
2019-02-07T17:28:02.958Z,17.13
2019-02-07T17:30:33.980Z,15.57
2019-02-07T17:33:04.434Z,17.27
2019-02-07T17:35:35.058Z,13.33
2019-02-07T17:38:05.622Z,12.47
2019-02-07T17:40:36.144Z,14.43
2019-02-07T17:43:06.584Z,13.87
2019-02-07T17:45:37.032Z,12.77
2019-02-07T17:48:07.493Z,13.67
2019-02-07T17:50:37.931Z,15.20
2019-02-07T17:53:08.843Z,14.70
2019-02-07T17:55:39.248Z,14.97
2019-02-07T17:58:10.178Z,15.40
2019-02-07T18:01:08.697Z,15.33
2019-02-07T18:03:39.056Z,15.47
2019-02-07T18:06:10.274Z,16.60
2019-02-07T18:08:40.606Z,15.90
2019-02-07T18:11:11.028Z,15.53
2019-02-07T18:13:41.373Z,23.27
2019-02-07T18:16:11.770Z,23.77
2019-02-07T18:18:42.098Z,22.43
2019-02-07T18:21:13.004Z,20.73
2019-02-07T18:23:43.365Z,30.03
2019-02-07T18:26:14.899Z,24.37
2019-02-07T18:28:45.443Z,25.60
2019-02-07T18:31:15.878Z,17.13
2019-02-07T18:33:46.243Z,15.67
2019-02-07T18:36:16.706Z,18.00
2019-02-07T18:38:47.166Z,16.93
2019-02-07T18:41:17.616Z,14.53
2019-02-07T18:43:48.013Z,13.23
2019-02-07T18:46:18.477Z,16.03
2019-02-07T18:48:50.077Z,14.00
2019-02-07T18:51:20.840Z,13.67
2019-02-07T18:53:52.353Z,14.20
2019-02-07T18:56:23.857Z,15.27
2019-02-07T18:58:54.176Z,12.40
2019-02-07T19:01:24.570Z,14.10
2019-02-07T19:03:54.937Z,11.40
2019-02-07T19:06:25.355Z,10.73
2019-02-07T19:08:55.738Z,16.57
2019-02-07T19:11:26.123Z,16.17
2019-02-07T19:13:56.463Z,14.23
2019-02-07T19:16:27.172Z,16.87
2019-02-07T19:18:57.519Z,16.70
2019-02-07T19:21:27.899Z,18.47
2019-02-07T19:23:58.258Z,20.67
2019-02-07T19:26:28.684Z,22.10
2019-02-07T19:28:59.063Z,22.87
2019-02-07T19:31:29.582Z,28.23
2019-02-07T19:34:00.129Z,29.07
2019-02-07T19:36:30.532Z,31.10
2019-02-07T19:39:01.005Z,28.53
2019-02-07T19:41:33.149Z,30.10
2019-02-07T19:44:03.681Z,30.00
2019-02-07T19:46:34.146Z,32.33
2019-02-07T19:49:04.584Z,29.83
2019-02-07T19:51:35.023Z,31.33
2019-02-07T19:54:05.719Z,31.03
2019-02-07T19:56:36.112Z,28.03
2019-02-07T19:59:06.922Z,30.23
2019-02-07T20:01:38.365Z,28.75
2019-02-07T20:04:08.733Z,30.50
2019-02-07T20:06:41.518Z,26.97
2019-02-07T20:09:13.516Z,27.00
2019-02-07T20:11:47.896Z,25.67
2019-02-07T20:14:18.767Z,24.98
2019-02-07T20:16:51.154Z,24.43
2019-02-07T20:19:21.819Z,23.43
2019-02-07T20:21:52.918Z,23.47
2019-02-07T20:24:23.461Z,20.80
2019-02-07T20:26:54.231Z,21.20
2019-02-07T20:29:24.670Z,21.73
2019-02-07T20:31:55.193Z,19.27
2019-02-07T20:34:25.796Z,19.73
2019-02-07T20:36:56.612Z,17.33
2019-02-07T20:39:27.238Z,17.27
2019-02-07T20:41:57.994Z,19.30
2019-02-07T20:44:28.341Z,19.23
2019-02-07T20:46:58.821Z,18.57
2019-02-07T20:49:29.161Z,18.03
2019-02-07T20:51:59.625Z,17.53
2019-02-07T20:54:30.817Z,15.38
2019-02-07T20:57:01.543Z,18.17
2019-02-07T20:59:31.943Z,18.33
2019-02-07T21:02:02.341Z,17.43
2019-02-07T21:04:32.737Z,17.13
2019-02-07T21:07:03.134Z,17.87
2019-02-07T21:09:34.619Z,18.17
2019-02-07T21:12:05.136Z,17.63
2019-02-07T21:14:35.464Z,18.97
2019-02-07T21:17:05.905Z,18.10
2019-02-07T21:19:36.383Z,17.57
2019-02-07T21:22:06.809Z,18.93
2019-02-07T21:24:37.103Z,17.77
2019-02-07T21:27:07.496Z,18.17
2019-02-07T21:29:37.819Z,17.83
2019-02-07T21:32:08.204Z,16.70
2019-02-07T21:34:38.538Z,14.63
2019-02-07T21:37:08.919Z,16.37
2019-02-07T21:39:39.240Z,15.90
2019-02-07T21:42:09.628Z,15.30
2019-02-07T21:44:40.021Z,11.27
2019-02-07T21:47:11.526Z,13.70
2019-02-07T21:49:41.939Z,13.53
2019-02-07T21:52:12.259Z,16.40
2019-02-07T21:54:42.643Z,13.97
2019-02-07T21:57:13.007Z,12.90
2019-02-07T21:59:43.375Z,15.27
2019-02-07T22:02:13.687Z,11.53
2019-02-07T22:04:44.103Z,13.90
2019-02-07T22:07:14.432Z,13.83
2019-02-07T22:09:45.111Z,12.97
2019-02-07T22:12:15.428Z,13.23
2019-02-07T22:14:45.751Z,13.57
2019-02-07T22:17:16.062Z,11.23
2019-02-07T22:19:46.380Z,13.40
2019-02-07T22:22:16.674Z,14.27
2019-02-07T22:24:47.217Z,12.90
2019-02-07T22:27:17.517Z,15.23
2019-02-07T22:29:47.890Z,12.17
2019-02-07T22:32:18.224Z,11.00
2019-02-07T22:34:48.551Z,11.57
2019-02-07T22:37:18.841Z,12.43
2019-02-07T22:39:49.181Z,12.93
2019-02-07T22:42:19.805Z,12.63
2019-02-07T22:44:50.201Z,12.77
2019-02-07T22:47:20.556Z,13.53
2019-02-07T22:49:50.860Z,13.83
2019-02-07T22:52:21.398Z,11.83
2019-02-07T22:54:51.726Z,11.00
2019-02-07T22:57:22.460Z,10.10
2019-02-07T22:59:52.784Z,11.77
2019-02-07T23:02:23.166Z,14.87
2019-02-07T23:04:53.721Z,11.63
2019-02-07T23:07:24.145Z,14.57
2019-02-07T23:09:54.549Z,12.90
2019-02-07T23:12:24.941Z,12.83
2019-02-07T23:14:55.308Z,11.93
2019-02-07T23:17:25.790Z,11.43
2019-02-07T23:19:56.491Z,13.10
2019-02-07T23:22:26.917Z,11.87
2019-02-07T23:24:57.221Z,12.80
2019-02-07T23:27:27.589Z,10.95
2019-02-07T23:29:57.999Z,11.57
2019-02-07T23:32:28.626Z,13.97
2019-02-07T23:34:58.998Z,15.90
2019-02-07T23:37:29.326Z,12.73
2019-02-07T23:39:59.656Z,14.17
2019-02-07T23:42:30.893Z,16.67
2019-02-07T23:45:01.272Z,13.10
2019-02-07T23:47:31.718Z,13.37
2019-02-07T23:50:02.159Z,14.87
2019-02-07T23:52:32.572Z,15.93
2019-02-07T23:55:04.631Z,16.33
2019-02-07T23:57:36.261Z,17.17
